createdAt,value
2022-11-24T00:01:07.926Z,100526.88
2022-11-24T00:03:34.591Z,100527.75
2022-11-24T00:06:07.643Z,100533.31
2022-11-24T00:08:34.941Z,100534.19
2022-11-24T00:11:10.630Z,100529.22
2022-11-24T00:13:40.917Z,100529.97
2022-11-24T00:16:13.499Z,100527.84
2022-11-24T00:18:41.923Z,100534.03
2022-11-24T00:21:09.081Z,100539.59
2022-11-24T00:23:36.540Z,100538.53
2022-11-24T00:26:08.174Z,100539.84
2022-11-24T00:28:35.881Z,100542.13
2022-11-24T00:31:03.009Z,100543.00
2022-11-24T00:33:29.954Z,100542.25
2022-11-24T00:36:00.620Z,100536.84
2022-11-24T00:38:27.446Z,100541.94
2022-11-24T00:40:54.114Z,100545.84
2022-11-24T00:43:20.635Z,100555.16
2022-11-24T00:45:47.343Z,100544.06
2022-11-24T00:48:14.198Z,100562.22
2022-11-24T00:50:40.828Z,100567.75
2022-11-24T00:53:07.470Z,100563.53
2022-11-24T00:55:34.099Z,100563.53
2022-11-24T00:58:00.681Z,100564.44
2022-11-24T01:00:27.382Z,100567.13
2022-11-24T01:02:54.044Z,100569.97
2022-11-24T01:05:21.003Z,100573.44
2022-11-24T01:07:47.654Z,100580.78
2022-11-24T01:10:14.358Z,100586.97
2022-11-24T01:12:40.934Z,100568.94
2022-11-24T01:15:07.882Z,100571.63
2022-11-24T01:17:34.412Z,100575.50
2022-11-24T01:20:00.996Z,100574.00
2022-11-24T01:22:27.678Z,100570.25
2022-11-24T01:24:54.266Z,100579.53
2022-11-24T01:27:20.855Z,100583.00
2022-11-24T01:29:47.418Z,100583.88
2022-11-24T01:32:13.926Z,100583.88
2022-11-24T01:34:40.465Z,100592.88
2022-11-24T01:37:07.004Z,100582.81
2022-11-24T01:39:33.659Z,100592.56
2022-11-24T01:42:03.270Z,100593.75
2022-11-24T01:44:31.194Z,100588.34
2022-11-24T01:47:02.871Z,100594.97
2022-11-24T01:49:41.338Z,100599.31
2022-11-24T01:52:18.223Z,100598.56
2022-11-24T01:55:07.375Z,100598.22
2022-11-24T01:57:38.539Z,100605.59
2022-11-24T02:00:11.648Z,100607.25
2022-11-24T02:02:38.340Z,100608.00
2022-11-24T02:05:28.574Z,100610.72
2022-11-24T02:08:00.398Z,100605.72
2022-11-24T02:10:26.994Z,100607.34
2022-11-24T02:12:56.072Z,100617.44
2022-11-24T02:15:22.770Z,100624.81
2022-11-24T02:17:49.275Z,100614.75
2022-11-24T02:20:17.203Z,100613.97
2022-11-24T02:22:49.554Z,100614.75
2022-11-24T02:25:16.002Z,100622.50
2022-11-24T02:27:49.393Z,100621.00
2022-11-24T02:30:19.033Z,100616.78
2022-11-24T02:32:45.660Z,100624.91
2022-11-24T02:35:13.381Z,100622.63
2022-11-24T02:37:39.990Z,100629.53
2022-11-24T02:40:07.326Z,100635.41
2022-11-24T02:42:38.513Z,100625.00
2022-11-24T02:45:05.625Z,100629.66
2022-11-24T02:47:32.203Z,100631.31
2022-11-24T02:49:59.042Z,100630.53
2022-11-24T02:52:25.687Z,100628.28
2022-11-24T02:54:52.170Z,100627.09
2022-11-24T02:57:18.803Z,100617.47
2022-11-24T02:59:46.628Z,100627.09
2022-11-24T03:02:13.223Z,100627.53
2022-11-24T03:04:39.731Z,100628.00
2022-11-24T03:07:06.445Z,100628.00
2022-11-24T03:09:33.028Z,100627.19
2022-11-24T03:11:59.566Z,100625.69
2022-11-24T03:14:26.101Z,100626.88
2022-11-24T03:16:52.623Z,100633.50
2022-11-24T03:19:19.122Z,100637.69
2022-11-24T03:21:45.647Z,100638.56
2022-11-24T03:24:12.171Z,100640.13
2022-11-24T03:26:38.762Z,100636.63
2022-11-24T03:29:05.343Z,100638.25
2022-11-24T03:31:32.010Z,100637.19
2022-11-24T03:33:58.619Z,100645.63
2022-11-24T03:36:25.480Z,100656.88
2022-11-24T03:38:52.103Z,100656.88
2022-11-24T03:41:18.646Z,100657.31
2022-11-24T03:43:45.296Z,100655.34
2022-11-24T03:46:12.689Z,100653.84
2022-11-24T03:48:39.611Z,100656.97
2022-11-24T03:51:07.048Z,100663.59
2022-11-24T03:53:33.942Z,100656.22
2022-11-24T03:56:02.090Z,100665.97
2022-11-24T03:58:29.259Z,100666.72
2022-11-24T04:00:56.288Z,100670.31
2022-11-24T04:03:23.416Z,100673.75
2022-11-24T04:05:50.318Z,100670.31
2022-11-24T04:08:19.767Z,100675.72
2022-11-24T04:10:50.290Z,100681.13
2022-11-24T04:13:18.840Z,100685.00
2022-11-24T04:15:45.533Z,100673.88
2022-11-24T04:18:13.286Z,100677.31
2022-11-24T04:20:41.224Z,100689.34
2022-11-24T04:23:09.036Z,100697.44
2022-11-24T04:25:35.968Z,100696.69
2022-11-24T04:28:02.621Z,100692.47
2022-11-24T04:30:29.798Z,100693.25
2022-11-24T04:32:57.141Z,100700.56
2022-11-24T04:35:23.657Z,100703.28
2022-11-24T04:37:50.257Z,100707.19
2022-11-24T04:40:17.235Z,100701.88
2022-11-24T04:42:43.795Z,100707.28
2022-11-24T04:45:11.475Z,100701.88
2022-11-24T04:47:38.308Z,100702.31
2022-11-24T04:50:07.693Z,100708.91
2022-11-24T04:52:34.316Z,100714.00
2022-11-24T04:55:00.823Z,100723.94
2022-11-24T04:57:27.692Z,100727.50
2022-11-24T04:59:56.055Z,100722.53
2022-11-24T05:02:23.074Z,100731.41
2022-11-24T05:04:49.763Z,100737.25
2022-11-24T05:07:19.053Z,100731.06
2022-11-24T05:10:05.167Z,100736.47
2022-11-24T05:12:31.764Z,100735.41
2022-11-24T05:14:59.325Z,100734.66
2022-11-24T05:17:30.200Z,100743.94
2022-11-24T05:19:57.267Z,100741.13
2022-11-24T05:22:24.022Z,100741.25
2022-11-24T05:24:50.556Z,100745.13
2022-11-24T05:27:17.022Z,100754.44
2022-11-24T05:29:43.529Z,100755.94
2022-11-24T05:32:10.101Z,100755.63
2022-11-24T05:34:37.554Z,100754.84
2022-11-24T05:37:04.521Z,100756.03
2022-11-24T05:39:35.825Z,100754.53
2022-11-24T05:42:26.041Z,100762.22
2022-11-24T05:44:53.647Z,100762.22
2022-11-24T05:47:20.294Z,100768.81
2022-11-24T05:49:46.827Z,100758.00
2022-11-24T05:52:13.985Z,100768.91
2022-11-24T05:54:40.546Z,100769.13
2022-11-24T05:57:07.449Z,100774.00
2022-11-24T05:59:34.118Z,100768.38
2022-11-24T06:02:03.780Z,100777.47
2022-11-24T06:04:30.313Z,100770.97
2022-11-24T06:06:56.988Z,100774.09
2022-11-24T06:09:23.442Z,100782.31
2022-11-24T06:11:50.190Z,100783.47
2022-11-24T06:14:16.613Z,100782.38
2022-11-24T06:16:43.254Z,100779.75
2022-11-24T06:19:11.031Z,100791.00
2022-11-24T06:21:37.761Z,100801.19
2022-11-24T06:24:05.215Z,100801.25
2022-11-24T06:26:31.685Z,100804.00
2022-11-24T06:28:58.165Z,100817.63
2022-11-24T06:31:24.769Z,100811.09
2022-11-24T06:33:51.474Z,100816.13
2022-11-24T06:36:17.931Z,100813.91
2022-11-24T06:38:44.517Z,100818.19
2022-11-24T06:41:15.710Z,100824.84
2022-11-24T06:43:42.690Z,100822.63
2022-11-24T06:46:09.451Z,100827.03
2022-11-24T06:48:36.003Z,100826.03
2022-11-24T06:51:08.535Z,100825.75
2022-11-24T06:53:40.033Z,100824.75
2022-11-24T06:56:15.218Z,100833.06
2022-11-24T06:58:45.085Z,100820.72
2022-11-24T07:01:24.814Z,100827.53
2022-11-24T07:03:52.497Z,100829.19
2022-11-24T07:06:20.056Z,100836.75
2022-11-24T07:08:47.053Z,100842.34
2022-11-24T07:11:16.475Z,100853.81
2022-11-24T07:13:43.355Z,100857.47
2022-11-24T07:16:21.848Z,100862.13
2022-11-24T07:18:51.283Z,100865.00
2022-11-24T07:21:19.578Z,100859.00
2022-11-24T07:23:53.183Z,100873.47
2022-11-24T07:26:20.256Z,100877.09
2022-11-24T07:28:47.300Z,100877.72
2022-11-24T07:31:20.223Z,100884.06
2022-11-24T07:33:50.798Z,100881.50
2022-11-24T07:36:18.079Z,100882.56
2022-11-24T07:38:44.626Z,100883.03
2022-11-24T07:41:12.650Z,100887.41
2022-11-24T07:43:39.678Z,100889.84
2022-11-24T07:46:12.341Z,100896.31
2022-11-24T07:48:38.872Z,100892.25
2022-11-24T07:51:05.868Z,100907.78
2022-11-24T07:53:33.232Z,100910.97
2022-11-24T07:56:01.312Z,100906.91
2022-11-24T07:58:33.425Z,100917.44
2022-11-24T08:01:01.073Z,100918.53
2022-11-24T08:03:27.926Z,100912.47
2022-11-24T08:08:46.365Z,100910.94
2022-11-24T08:11:15.976Z,100914.72
2022-11-24T08:13:43.368Z,100914.72
2022-11-24T08:16:12.011Z,100914.41
2022-11-24T08:18:39.012Z,100919.25
2022-11-24T08:21:06.779Z,100925.44
2022-11-24T08:23:34.199Z,100930.38
2022-11-24T08:26:08.847Z,100928.00
2022-11-24T08:28:35.853Z,100930.72
2022-11-24T08:31:08.425Z,100922.56
2022-11-24T08:33:34.933Z,100921.31
2022-11-24T08:36:09.738Z,100932.50
2022-11-24T08:38:36.338Z,100932.34
2022-11-24T08:41:04.920Z,100936.28
2022-11-24T08:43:31.800Z,100941.13
2022-11-24T08:46:06.590Z,100948.06
2022-11-24T08:48:33.960Z,100945.19
2022-11-24T08:51:07.600Z,100952.75
2022-11-24T08:53:34.047Z,100953.50
2022-11-24T08:56:01.038Z,100958.44
2022-11-24T08:58:31.990Z,100964.66
2022-11-24T09:01:13.950Z,100965.84
2022-11-24T09:03:46.597Z,100975.56
2022-11-24T09:06:18.103Z,100967.22
2022-11-24T09:08:44.576Z,100980.06
2022-11-24T09:11:13.391Z,100971.44
2022-11-24T09:13:40.560Z,100977.31
2022-11-24T09:16:10.457Z,100984.56
2022-11-24T09:18:37.482Z,100975.06
2022-11-24T09:21:15.270Z,100977.91
2022-11-24T09:23:43.297Z,100985.59
2022-11-24T09:26:16.023Z,100980.91
2022-11-24T09:28:43.352Z,100992.13
2022-11-24T09:31:13.199Z,100996.91
2022-11-24T09:33:40.669Z,100987.53
2022-11-24T09:36:07.789Z,100991.63
2022-11-24T09:38:34.435Z,100988.75
2022-11-24T09:41:15.195Z,100999.63
2022-11-24T09:43:55.453Z,101003.41
2022-11-24T09:47:02.847Z,101000.22
2022-11-24T09:49:57.399Z,100997.50
2022-11-24T09:53:01.239Z,100998.09
2022-11-24T09:55:27.697Z,100998.66
2022-11-24T09:58:17.959Z,101002.75
2022-11-24T10:00:46.745Z,101017.72
2022-11-24T10:03:23.347Z,101000.47
2022-11-24T10:05:51.288Z,101002.25
2022-11-24T10:08:29.498Z,101002.25
2022-11-24T10:11:01.539Z,101008.59
2022-11-24T10:13:54.291Z,101010.84
2022-11-24T10:16:20.780Z,101014.47
2022-11-24T10:19:14.454Z,101018.97
2022-11-24T10:21:47.440Z,101023.66
2022-11-24T10:24:26.082Z,101026.72
2022-11-24T10:27:03.972Z,101029.56
2022-11-24T10:29:41.738Z,101026.84
2022-11-24T10:32:15.397Z,101020.69
2022-11-24T10:34:45.668Z,101022.16
2022-11-24T10:37:12.485Z,101020.69
2022-11-24T10:40:00.231Z,101020.50
2022-11-24T10:42:33.517Z,101021.69
2022-11-24T10:45:02.161Z,101019.06
2022-11-24T10:47:30.315Z,101030.56
2022-11-24T10:50:15.096Z,101018.78
2022-11-24T10:52:45.129Z,101027.53
2022-11-24T10:55:11.631Z,101025.38
2022-11-24T10:57:39.980Z,101029.16
2022-11-24T11:00:26.738Z,101034.31
2022-11-24T11:03:17.175Z,101034.88
2022-11-24T11:06:05.422Z,101040.94
2022-11-24T11:08:32.488Z,101036.50
2022-11-24T11:11:23.748Z,101040.72
2022-11-24T11:14:01.533Z,101045.44
2022-11-24T11:16:36.163Z,101050.44
2022-11-24T11:19:47.768Z,101048.75
2022-11-24T11:22:11.477Z,101051.00
2022-11-24T11:24:40.165Z,101050.25
2022-11-24T11:27:24.967Z,101054.09
2022-11-24T11:35:38.668Z,101058.03
2022-11-24T11:38:06.909Z,101057.28
2022-11-24T11:40:34.905Z,101057.44
2022-11-24T11:43:27.462Z,101048.69
2022-11-24T11:46:15.523Z,101049.59
2022-11-24T11:48:46.729Z,101052.50
2022-11-24T11:51:23.945Z,101052.69
2022-11-24T11:54:20.137Z,101057.53
2022-11-24T11:56:50.080Z,101050.75
2022-11-24T11:59:33.181Z,101057.09
2022-11-24T12:02:02.268Z,101066.97
2022-11-24T12:04:52.776Z,101072.69
2022-11-24T12:07:29.472Z,101063.50
2022-11-24T12:10:14.139Z,101071.09
2022-11-24T12:12:49.789Z,101077.28
2022-11-24T12:15:28.459Z,101079.41
2022-11-24T12:18:03.944Z,101076.59
2022-11-24T12:21:08.274Z,101087.78
2022-11-24T12:23:55.962Z,101080.66
2022-11-24T12:26:46.441Z,101089.13
2022-11-24T12:29:34.540Z,101089.13
2022-11-24T12:32:47.099Z,101083.13
2022-11-24T12:35:33.258Z,101090.22
2022-11-24T12:38:32.495Z,101089.19
2022-11-24T12:44:42.679Z,101104.72
2022-11-24T12:47:14.077Z,101096.75
2022-11-24T12:49:52.698Z,101102.19
2022-11-24T12:52:25.321Z,101094.03
2022-11-24T12:54:52.573Z,101094.03
2022-11-24T12:57:23.787Z,101105.31
2022-11-24T13:00:03.298Z,101107.03
2022-11-24T13:02:47.622Z,101110.16
2022-11-24T13:05:37.709Z,101115.59
2022-11-24T13:08:05.865Z,101113.19
2022-11-24T13:10:55.454Z,101107.75
2022-11-24T13:13:28.016Z,101114.84
2022-11-24T13:16:20.635Z,101122.56
2022-11-24T13:18:47.815Z,101128.75
2022-11-24T13:21:47.073Z,101126.94
2022-11-24T13:26:50.725Z,101127.25
2022-11-24T13:29:29.553Z,101136.16
2022-11-24T13:32:18.988Z,101144.31
2022-11-24T13:34:45.861Z,101140.53
2022-11-24T13:37:35.882Z,101150.34
2022-11-24T13:40:11.640Z,101152.78
2022-11-24T13:42:57.339Z,101146.56
2022-11-24T13:45:38.878Z,101145.81
2022-11-24T13:48:21.153Z,101157.16
2022-11-24T13:50:51.617Z,101157.16
2022-11-24T13:53:38.501Z,101148.69
2022-11-24T13:56:14.916Z,101159.56
2022-11-24T13:58:49.889Z,101158.81
2022-11-24T14:01:24.121Z,101159.28
2022-11-24T14:04:28.631Z,101163.19
2022-11-24T14:06:54.142Z,101165.13
2022-11-24T14:09:28.299Z,101165.59
2022-11-24T14:12:06.416Z,101171.03
2022-11-24T14:14:33.272Z,101174.22
2022-11-24T14:17:16.090Z,101182.81
2022-11-24T14:19:44.608Z,101185.09
2022-11-24T14:22:20.927Z,101190.66
2022-11-24T14:24:56.551Z,101191.88
2022-11-24T14:27:28.090Z,101198.94
2022-11-24T14:29:57.591Z,101200.91
2022-11-24T14:32:24.524Z,101201.03
2022-11-24T14:34:52.212Z,101200.63
2022-11-24T14:37:21.726Z,101201.38
2022-11-24T14:39:48.230Z,101201.03
2022-11-24T14:42:23.830Z,101205.75
2022-11-24T14:44:55.601Z,101199.09
2022-11-24T14:47:27.131Z,101210.41
2022-11-24T14:50:05.732Z,101206.94
2022-11-24T14:52:32.388Z,101210.09
2022-11-24T14:55:21.261Z,101219.91
2022-11-24T14:57:47.817Z,101221.13
2022-11-24T15:00:26.943Z,101223.56
2022-11-24T15:03:16.034Z,101228.03
2022-11-24T15:05:59.459Z,101230.47
2022-11-24T15:08:28.473Z,101237.50
2022-11-24T15:11:00.349Z,101239.59
2022-11-24T15:13:28.074Z,101234.31
2022-11-24T15:16:02.528Z,101244.13
2022-11-24T15:18:37.243Z,101240.78
2022-11-24T15:21:03.784Z,101240.16
2022-11-24T15:23:32.193Z,101244.81
2022-11-24T15:26:18.893Z,101241.63
2022-11-24T15:28:48.431Z,101238.56
2022-11-24T15:31:15.112Z,101247.28
2022-11-24T15:33:42.197Z,101251.66
2022-11-24T15:36:08.729Z,101245.91
2022-11-24T15:38:35.449Z,101248.44
2022-11-24T15:41:02.299Z,101250.41
2022-11-24T15:43:30.984Z,101261.28
2022-11-24T15:45:58.682Z,101257.91
2022-11-24T15:48:25.488Z,101257.16
2022-11-24T15:50:52.704Z,101263.47
2022-11-24T15:53:22.821Z,101261.63
2022-11-24T15:55:50.462Z,101256.66
2022-11-24T15:58:17.024Z,101264.47
2022-11-24T16:00:44.492Z,101254.06
2022-11-24T16:03:44.497Z,101264.47
2022-11-24T16:05:58.096Z,101269.91
2022-11-24T16:08:24.745Z,101271.53
2022-11-24T16:10:51.362Z,101268.06
2022-11-24T16:13:17.861Z,101271.22
2022-11-24T16:15:45.706Z,101274.69
2022-11-24T16:18:13.851Z,101274.69
2022-11-24T16:20:40.421Z,101268.50
2022-11-24T16:23:06.949Z,101269.72
2022-11-24T16:25:33.616Z,101268.50
2022-11-24T16:28:00.135Z,101267.31
2022-11-24T16:30:26.732Z,101270.78
2022-11-24T16:32:53.548Z,101271.53
2022-11-24T16:35:20.187Z,101274.25
2022-11-24T16:37:46.839Z,101268.06
2022-11-24T16:40:13.573Z,101270.78
2022-11-24T16:42:40.118Z,101271.22
2022-11-24T16:45:07.198Z,101263.06
2022-11-24T16:47:39.698Z,101268.50
2022-11-24T16:50:07.824Z,101280.88
2022-11-24T16:52:34.469Z,101284.78
2022-11-24T16:55:01.711Z,101289.50
2022-11-24T16:57:28.241Z,101294.16
2022-11-24T16:59:54.771Z,101284.78
2022-11-24T17:02:21.267Z,101286.03
2022-11-24T17:04:49.652Z,101290.69
2022-11-24T17:07:16.146Z,101289.50
2022-11-24T17:09:42.692Z,101282.84
2022-11-24T17:12:09.231Z,101289.16
2022-11-24T17:14:36.951Z,101285.66
2022-11-24T17:17:06.564Z,101293.41
2022-11-24T17:19:33.103Z,101294.56
2022-11-24T17:21:59.712Z,101300.75
2022-11-24T17:24:29.498Z,101292.63
2022-11-24T17:26:55.914Z,101298.50
2022-11-24T17:29:22.409Z,101294.56
2022-11-24T17:31:49.067Z,101305.44
2022-11-24T17:34:15.664Z,101304.69
2022-11-24T17:36:44.660Z,101299.25
2022-11-24T17:39:11.353Z,101301.97
2022-11-24T17:41:38.114Z,101311.63
2022-11-24T17:44:04.624Z,101306.63
2022-11-24T17:46:31.368Z,101316.72
2022-11-24T17:48:58.445Z,101320.97
2022-11-24T17:51:26.549Z,101327.59
2022-11-24T17:53:54.256Z,101320.97
2022-11-24T17:56:23.604Z,101325.63
2022-11-24T17:58:58.312Z,101320.22
2022-11-24T18:01:26.068Z,101326.09
2022-11-24T18:03:54.066Z,101328.34
2022-11-24T18:06:24.050Z,101336.50
2022-11-24T18:08:51.349Z,101336.97
2022-11-24T18:11:30.223Z,101336.22
2022-11-24T18:14:01.390Z,101341.16
2022-11-24T18:16:30.188Z,101340.88
2022-11-24T18:19:07.983Z,101342.81
2022-11-24T18:21:35.156Z,101345.94
2022-11-24T18:24:01.826Z,101351.38
2022-11-24T18:26:28.701Z,101353.38
2022-11-24T18:28:55.234Z,101352.59
2022-11-24T18:31:22.347Z,101353.38
2022-11-24T18:33:48.925Z,101358.03
2022-11-24T18:36:24.553Z,101351.09
2022-11-24T18:39:03.442Z,101357.28
2022-11-24T18:41:30.069Z,101357.28
2022-11-24T18:44:07.206Z,101364.66
2022-11-24T18:46:33.817Z,101364.66
2022-11-24T18:49:00.418Z,101379.00
2022-11-24T18:51:27.264Z,101379.00
2022-11-24T18:54:00.021Z,101381.25
2022-11-24T18:56:27.193Z,101365.41
2022-11-24T18:58:57.644Z,101379.00
2022-11-24T19:01:28.522Z,101386.66
2022-11-24T19:04:01.706Z,101387.13
2022-11-24T19:06:37.806Z,101391.38
2022-11-24T19:09:05.595Z,101383.22
2022-11-24T19:11:35.546Z,101387.44
2022-11-24T19:14:04.145Z,101395.28
2022-11-24T19:16:30.813Z,101394.09
2022-11-24T19:18:59.977Z,101399.97
2022-11-24T19:21:27.487Z,101395.28
2022-11-24T19:23:54.024Z,101400.72
2022-11-24T19:26:20.513Z,101401.47
2022-11-24T19:28:47.450Z,101400.72
2022-11-24T19:31:15.910Z,101394.53
2022-11-24T19:33:43.153Z,101393.00
2022-11-24T19:36:18.137Z,101399.97
2022-11-24T19:38:53.212Z,101397.25
2022-11-24T19:41:21.347Z,101397.66
2022-11-24T19:43:48.464Z,101400.81
2022-11-24T19:46:17.510Z,101404.28
2022-11-24T19:48:54.120Z,101408.50
2022-11-24T19:51:23.407Z,101408.50
2022-11-24T19:53:49.965Z,101418.97
2022-11-24T19:56:22.446Z,101420.91
2022-11-24T19:58:49.993Z,101420.91
2022-11-24T20:01:21.070Z,101431.78
2022-11-24T20:03:53.148Z,101431.00
2022-11-24T20:06:19.592Z,101429.06
2022-11-24T20:08:46.018Z,101434.47
2022-11-24T20:11:21.220Z,101434.47
2022-11-24T20:13:49.735Z,101433.28
2022-11-24T20:16:26.110Z,101439.47
2022-11-24T20:18:54.772Z,101436.75
2022-11-24T20:21:23.705Z,101433.28
2022-11-24T20:23:55.606Z,101436.00
2022-11-24T20:26:24.630Z,101442.63
2022-11-24T20:28:53.703Z,101443.38
2022-11-24T20:31:27.351Z,101444.16
2022-11-24T20:33:54.011Z,101442.94
2022-11-24T20:36:23.990Z,101450.78
2022-11-24T20:38:52.030Z,101450.78
2022-11-24T20:41:23.715Z,101445.75
2022-11-24T20:43:51.478Z,101450.00
2022-11-24T20:46:21.666Z,101447.31
2022-11-24T20:48:49.109Z,101448.47
2022-11-24T20:51:16.881Z,101466.72
2022-11-24T20:53:43.483Z,101463.25
2022-11-24T20:56:17.100Z,101459.31
2022-11-24T20:58:43.641Z,101461.75
2022-11-24T21:01:22.326Z,101466.72
2022-11-24T21:03:53.191Z,101466.72
2022-11-24T21:06:19.884Z,101463.25
2022-11-24T21:08:46.433Z,101469.41
2022-11-24T21:11:14.580Z,101475.59
2022-11-24T21:13:44.323Z,101473.66
2022-11-24T21:16:16.871Z,101478.78
2022-11-24T21:18:44.914Z,101476.38
2022-11-24T21:21:12.830Z,101481.03
2022-11-24T21:23:40.194Z,101476.06
2022-11-24T21:26:13.168Z,101474.84
2022-11-24T21:28:44.216Z,101476.06
2022-11-24T21:31:17.627Z,101496.94
2022-11-24T21:33:49.167Z,101489.94
2022-11-24T21:36:18.490Z,101488.03
2022-11-24T21:38:52.882Z,101482.59
2022-11-24T21:41:20.359Z,101483.34
2022-11-24T21:43:46.938Z,101489.53
2022-11-24T21:46:13.765Z,101486.81
2022-11-24T21:48:41.777Z,101485.31
2022-11-24T21:51:13.406Z,101496.16
2022-11-24T21:53:41.096Z,101495.38
2022-11-24T21:56:12.765Z,101495.38
2022-11-24T21:58:47.590Z,101487.22
2022-11-24T22:01:16.023Z,101480.28
2022-11-24T22:03:43.104Z,101491.91
2022-11-24T22:06:09.608Z,101499.28
2022-11-24T22:08:36.102Z,101489.66
2022-11-24T22:11:07.357Z,101486.16
2022-11-24T22:13:34.181Z,101502.47
2022-11-24T22:16:06.269Z,101493.84
2022-11-24T22:18:38.027Z,101494.63
2022-11-24T22:21:06.176Z,101498.56
2022-11-24T22:23:33.785Z,101504.72
2022-11-24T22:26:11.284Z,101510.91
2022-11-24T22:28:38.243Z,101503.22
2022-11-24T22:31:29.337Z,101505.94
2022-11-24T22:33:56.949Z,101512.56
2022-11-24T22:36:25.747Z,101515.28
2022-11-24T22:38:57.308Z,101517.63
2022-11-24T22:41:24.522Z,101511.91
2022-11-24T22:43:51.276Z,101516.22
2022-11-24T22:46:20.029Z,101511.69
2022-11-24T22:48:48.240Z,101513.72
2022-11-24T22:51:17.019Z,101512.31
2022-11-24T22:53:48.593Z,101511.34
2022-11-24T22:56:16.191Z,101515.34
2022-11-24T22:58:43.272Z,101510.44
2022-11-24T23:01:19.519Z,101503.16
2022-11-24T23:03:46.823Z,101508.66
2022-11-24T23:06:16.025Z,101504.91
2022-11-24T23:08:43.065Z,101510.41
2022-11-24T23:11:18.261Z,101511.69
2022-11-24T23:13:44.891Z,101503.97
2022-11-24T23:16:14.698Z,101508.00
2022-11-24T23:18:41.923Z,101509.59
2022-11-24T23:21:13.983Z,101512.41
2022-11-24T23:23:40.922Z,101515.22
2022-11-24T23:26:20.229Z,101517.16
2022-11-24T23:28:46.872Z,101516.06
2022-11-24T23:31:16.297Z,101512.69
2022-11-24T23:33:43.193Z,101502.31
2022-11-24T23:36:15.463Z,101500.75
2022-11-24T23:38:42.792Z,101498.16
2022-11-24T23:41:12.214Z,101502.47
2022-11-24T23:43:40.428Z,101492.47
2022-11-24T23:46:09.782Z,101496.38
2022-11-24T23:48:37.007Z,101497.25
2022-11-24T23:51:05.387Z,101493.41
2022-11-24T23:53:33.320Z,101490.78
2022-11-24T23:56:00.205Z,101486.56
2022-11-24T23:58:26.969Z,101484.31
